createdAt,value
2019-02-04T00:02:56.920Z,1.40
2019-02-04T00:05:58.301Z,1.40
2019-02-04T00:08:59.631Z,1.40
2019-02-04T00:12:00.050Z,1.40
2019-02-04T00:15:00.748Z,1.30
2019-02-04T00:18:02.312Z,1.40
2019-02-04T00:21:03.006Z,1.40
2019-02-04T00:24:03.641Z,1.40
2019-02-04T00:27:04.120Z,1.50
2019-02-04T00:30:04.924Z,1.40
2019-02-04T00:33:06.069Z,1.40
2019-02-04T00:36:06.472Z,1.40
2019-02-04T00:39:06.909Z,1.40
2019-02-04T00:42:07.281Z,1.30
2019-02-04T00:45:08.029Z,1.40
2019-02-04T00:48:08.876Z,1.40
2019-02-04T00:51:09.372Z,1.40
2019-02-04T00:54:09.966Z,1.40
2019-02-04T00:57:10.637Z,1.40
2019-02-04T01:00:11.366Z,1.40
2019-02-04T01:03:12.977Z,1.20
2019-02-04T01:06:14.324Z,1.30
2019-02-04T01:09:15.216Z,1.40
2019-02-04T01:12:16.505Z,1.40
2019-02-04T01:15:16.753Z,1.30
2019-02-04T01:18:18.005Z,1.10
2019-02-04T01:21:18.709Z,1.30
2019-02-04T01:24:19.099Z,1.40
2019-02-04T01:27:19.725Z,1.50
2019-02-04T01:30:20.712Z,1.30
2019-02-04T01:33:21.019Z,1.30
2019-02-04T01:36:21.950Z,1.40
2019-02-04T01:39:22.833Z,1.40
2019-02-04T01:42:23.070Z,1.50
2019-02-04T01:45:23.494Z,1.10
2019-02-04T01:48:23.924Z,0.90
2019-02-04T01:51:25.039Z,0.90
2019-02-04T01:54:25.505Z,1.10
2019-02-04T01:57:14.003Z,1.30
2019-02-04T02:07:02.240Z,1.40
2019-02-04T02:10:03.382Z,1.40
2019-02-04T02:13:03.715Z,1.30
2019-02-04T02:16:04.542Z,1.30
2019-02-04T02:19:05.159Z,1.40
2019-02-04T02:22:06.273Z,1.40
2019-02-04T02:25:07.500Z,1.40
2019-02-04T02:28:07.825Z,1.40
2019-02-04T02:31:08.183Z,1.50
2019-02-04T02:34:08.849Z,1.50
2019-02-04T02:37:10.045Z,1.50
2019-02-04T02:40:10.280Z,1.50
2019-02-04T02:43:11.879Z,1.40
2019-02-04T02:46:13.307Z,1.50
2019-02-04T02:49:14.661Z,1.40
2019-02-04T02:52:16.028Z,1.30
2019-02-04T02:55:16.645Z,1.40
2019-02-04T02:58:17.337Z,1.40
2019-02-04T03:01:18.058Z,1.40
2019-02-04T03:04:19.283Z,1.30
2019-02-04T03:07:20.174Z,1.40
2019-02-04T03:10:20.534Z,1.40
2019-02-04T03:13:21.729Z,1.40
2019-02-04T03:16:22.046Z,1.40
2019-02-04T03:19:22.481Z,1.40
2019-02-04T03:22:22.994Z,1.40
2019-02-04T03:25:23.872Z,1.40
2019-02-04T03:28:24.461Z,1.40
2019-02-04T03:31:25.124Z,1.40
2019-02-04T03:34:25.649Z,1.30
2019-02-04T03:37:26.134Z,1.40
2019-02-04T03:40:26.700Z,1.40
2019-02-04T03:43:27.992Z,1.40
2019-02-04T03:46:28.259Z,1.40
2019-02-04T03:49:28.702Z,1.50
2019-02-04T03:52:29.656Z,1.40
2019-02-04T03:55:30.809Z,1.50
2019-02-04T03:58:31.859Z,1.50
2019-02-04T04:01:32.647Z,1.40
2019-02-04T04:04:33.893Z,1.30
2019-02-04T04:07:34.591Z,1.30
2019-02-04T04:10:36.053Z,1.30
2019-02-04T04:13:36.894Z,1.30
2019-02-04T04:16:25.624Z,1.20
2019-02-04T04:19:33.487Z,1.30
2019-02-04T04:22:34.289Z,1.20
2019-02-04T04:25:34.837Z,1.30
2019-02-04T04:28:35.353Z,1.30
2019-02-04T04:31:36.094Z,1.20
2019-02-04T04:34:36.832Z,1.10
2019-02-04T04:37:37.372Z,1.10
2019-02-04T04:40:45.222Z,1.00
2019-02-04T04:43:53.368Z,0.90
2019-02-04T04:46:54.396Z,0.80
2019-02-04T04:49:54.972Z,0.70
2019-02-04T04:52:55.549Z,0.60
2019-02-04T04:55:55.853Z,0.60
2019-02-04T04:58:56.702Z,0.50
2019-02-04T05:01:57.104Z,0.50
2019-02-04T05:04:57.920Z,0.20
2019-02-04T05:07:58.719Z,0.10
2019-02-04T05:10:59.695Z,0.00
2019-02-04T05:13:59.979Z,0.00
2019-02-04T05:17:01.173Z,-0.10
2019-02-04T05:20:01.957Z,-0.20
2019-02-04T05:23:02.602Z,-0.40
2019-02-04T05:26:03.466Z,-0.60
2019-02-04T05:29:03.834Z,-0.60
2019-02-04T05:32:04.178Z,-0.60
2019-02-04T05:35:04.412Z,-0.70
2019-02-04T05:38:04.702Z,-0.70
2019-02-04T05:41:05.253Z,-0.70
2019-02-04T05:44:06.001Z,-0.80
2019-02-04T05:47:06.494Z,-1.10
2019-02-04T05:50:07.181Z,-1.10
2019-02-04T05:53:07.537Z,-1.40
2019-02-04T05:56:08.365Z,-1.50
2019-02-04T05:59:08.943Z,-1.60
2019-02-04T06:02:09.610Z,-1.50
2019-02-04T06:05:10.321Z,-1.90
2019-02-04T06:08:10.970Z,-1.70
2019-02-04T06:11:11.493Z,-1.80
2019-02-04T06:14:12.242Z,-1.80
2019-02-04T06:17:12.658Z,-1.90
2019-02-04T06:20:13.369Z,-2.00
2019-02-04T06:23:14.020Z,-2.00
2019-02-04T06:26:14.909Z,-2.00
2019-02-04T06:29:15.446Z,-2.20
2019-02-04T06:32:15.930Z,-2.30
2019-02-04T06:35:16.730Z,-2.30
2019-02-04T06:38:17.504Z,-2.30
2019-02-04T06:41:18.085Z,-2.30
2019-02-04T06:44:18.886Z,-2.30
2019-02-04T06:47:19.409Z,-2.40
2019-02-04T06:50:19.869Z,-2.40
2019-02-04T06:53:20.600Z,-2.50
2019-02-04T06:56:21.267Z,-2.60
2019-02-04T06:59:21.704Z,-2.60
2019-02-04T07:02:22.417Z,-2.50
2019-02-04T07:05:23.359Z,-2.40
2019-02-04T07:08:24.089Z,-2.50
2019-02-04T07:11:24.797Z,-2.50
2019-02-04T07:14:25.605Z,-2.50
2019-02-04T07:17:25.918Z,-2.60
2019-02-04T07:20:26.943Z,-2.50
2019-02-04T07:23:27.394Z,-2.00
2019-02-04T07:26:28.233Z,-1.60
2019-02-04T07:29:28.994Z,-1.60
2019-02-04T07:32:29.585Z,-1.10
2019-02-04T07:35:30.214Z,-0.70
2019-02-04T07:38:30.616Z,-0.40
2019-02-04T07:41:31.118Z,-0.10
2019-02-04T07:44:31.521Z,0.30
2019-02-04T07:47:32.105Z,0.40
2019-02-04T07:50:32.419Z,0.70
2019-02-04T07:53:32.817Z,1.10
2019-02-04T07:56:33.126Z,1.50
2019-02-04T07:59:33.621Z,1.90
2019-02-04T08:02:34.061Z,2.30
2019-02-04T08:05:34.825Z,2.50
2019-02-04T08:08:35.917Z,2.50
2019-02-04T08:11:36.533Z,2.60
2019-02-04T08:14:36.838Z,2.70
2019-02-04T08:17:37.157Z,3.10
2019-02-04T08:20:37.498Z,3.50
2019-02-04T08:23:37.817Z,3.90
2019-02-04T08:26:38.312Z,4.10
2019-02-04T08:29:38.850Z,4.50
2019-02-04T08:32:39.641Z,4.40
2019-02-04T08:35:40.061Z,5.20
2019-02-04T08:38:41.489Z,5.40
2019-02-04T08:41:42.303Z,5.30
2019-02-04T08:44:42.745Z,5.90
2019-02-04T08:47:43.254Z,6.40
2019-02-04T08:50:43.808Z,6.30
2019-02-04T08:53:44.993Z,7.50
2019-02-04T08:56:45.434Z,8.10
2019-02-04T08:59:45.735Z,7.80
2019-02-04T09:02:46.366Z,6.70
2019-02-04T09:05:46.910Z,6.20
2019-02-04T09:08:47.884Z,7.70
2019-02-04T09:11:48.267Z,7.40
2019-02-04T09:14:48.777Z,8.40
2019-02-04T09:17:49.680Z,8.80
2019-02-04T09:20:50.188Z,8.90
2019-02-04T09:23:50.556Z,9.70
2019-02-04T09:26:51.986Z,10.50
2019-02-04T09:29:52.363Z,9.90
2019-02-04T09:32:53.695Z,11.20
2019-02-04T09:35:54.917Z,10.80
2019-02-04T09:38:56.508Z,10.40
2019-02-04T09:41:57.749Z,11.70
2019-02-04T09:44:58.920Z,11.70
2019-02-04T09:48:00.345Z,11.70
2019-02-04T09:51:01.458Z,11.60
2019-02-04T09:57:20.137Z,11.10
2019-02-04T10:00:21.986Z,9.70
2019-02-04T10:03:22.826Z,9.80
2019-02-04T10:06:24.377Z,10.60
2019-02-04T10:09:25.731Z,11.20
2019-02-04T10:12:27.451Z,11.90
2019-02-04T10:15:28.968Z,12.60
2019-02-04T10:18:30.537Z,12.90
2019-02-04T10:21:32.313Z,12.50
2019-02-04T10:24:34.007Z,12.40
2019-02-04T10:27:35.577Z,12.40
2019-02-04T10:30:37.454Z,11.10
2019-02-04T10:33:38.484Z,9.70
2019-02-04T10:36:39.206Z,7.70
2019-02-04T10:39:40.508Z,6.80
2019-02-04T10:42:41.790Z,7.50
2019-02-04T10:45:42.226Z,7.80
2019-02-04T10:48:43.573Z,7.20
2019-02-04T10:51:44.484Z,7.50
2019-02-04T10:54:45.008Z,6.50
2019-02-04T10:57:45.469Z,6.10
2019-02-04T11:00:46.298Z,7.10
2019-02-04T11:03:46.795Z,7.30
2019-02-04T11:06:47.593Z,6.30
2019-02-04T11:09:48.006Z,7.30
2019-02-04T11:12:48.596Z,8.70
2019-02-04T11:15:49.559Z,9.90
2019-02-04T11:18:51.208Z,11.90
2019-02-04T11:21:52.525Z,10.10
2019-02-04T11:24:54.438Z,8.00
2019-02-04T11:27:56.105Z,10.20
2019-02-04T11:30:57.584Z,9.20
2019-02-04T11:33:59.297Z,9.90
2019-02-04T11:37:00.489Z,10.20
2019-02-04T11:40:03.886Z,11.30
2019-02-04T11:43:04.945Z,10.40
2019-02-04T11:46:06.860Z,11.20
2019-02-04T11:49:07.996Z,10.70
2019-02-04T11:52:09.262Z,11.10
2019-02-04T11:55:10.865Z,11.90
2019-02-04T11:58:12.121Z,12.90
2019-02-04T12:01:01.668Z,10.10
2019-02-04T12:04:10.174Z,10.60
2019-02-04T12:07:11.703Z,9.50
2019-02-04T12:10:12.559Z,9.10
2019-02-04T12:13:14.318Z,11.70
2019-02-04T12:16:16.063Z,12.60
2019-02-04T12:19:17.410Z,11.50
2019-02-04T12:22:19.001Z,11.20
2019-02-04T12:25:20.647Z,11.10
2019-02-04T12:28:22.126Z,12.40
2019-02-04T12:31:23.557Z,12.40
2019-02-04T12:34:24.926Z,12.70
2019-02-04T12:37:26.621Z,12.50
2019-02-04T12:40:27.862Z,12.90
2019-02-04T12:43:29.191Z,12.90
2019-02-04T12:46:30.192Z,14.60
2019-02-04T12:49:31.373Z,13.80
2019-02-04T12:52:33.246Z,13.50
2019-02-04T12:55:34.943Z,14.20
2019-02-04T12:58:36.604Z,13.50
2019-02-04T13:01:38.128Z,13.70
2019-02-04T13:04:39.804Z,13.70
2019-02-04T13:07:41.508Z,11.50
2019-02-04T13:10:42.898Z,10.60
2019-02-04T13:13:44.399Z,9.70
2019-02-04T13:16:45.802Z,10.20
2019-02-04T13:19:47.292Z,9.40
2019-02-04T13:22:49.041Z,9.80
2019-02-04T13:25:50.878Z,11.00
2019-02-04T13:28:52.630Z,12.30
2019-02-04T13:31:53.846Z,12.10
2019-02-04T13:34:55.603Z,13.70
2019-02-04T13:37:57.416Z,12.60
2019-02-04T13:41:07.601Z,13.60
2019-02-04T13:44:01.466Z,10.70
2019-02-04T13:47:05.665Z,13.20
2019-02-04T13:50:06.001Z,12.70
2019-02-04T13:53:08.210Z,13.50
2019-02-04T13:56:09.954Z,14.20
2019-02-04T13:59:11.414Z,15.40
2019-02-04T14:02:13.467Z,14.60
2019-02-04T14:05:15.325Z,15.50
2019-02-04T14:08:17.020Z,12.50
2019-02-04T14:11:18.749Z,14.60
2019-02-04T14:14:20.063Z,14.30
2019-02-04T14:17:24.277Z,12.80
2019-02-04T14:20:24.660Z,13.10
2019-02-04T14:23:13.985Z,15.50
2019-02-04T14:26:22.532Z,16.30
2019-02-04T14:29:23.637Z,16.90
2019-02-04T14:32:25.444Z,16.40
2019-02-04T14:35:14.813Z,15.80
2019-02-04T14:41:45.593Z,12.40
2019-02-04T14:44:46.921Z,12.30
2019-02-04T14:47:48.521Z,12.90
2019-02-04T14:50:50.257Z,12.90
2019-02-04T14:53:51.288Z,13.40
2019-02-04T14:56:52.825Z,14.00
2019-02-04T14:59:54.359Z,14.40
2019-02-04T15:02:55.947Z,14.30
2019-02-04T15:05:56.880Z,13.90
2019-02-04T15:08:58.639Z,12.40
2019-02-04T15:11:59.358Z,11.20
2019-02-04T15:14:59.699Z,10.10
2019-02-04T15:18:00.358Z,9.50
2019-02-04T15:21:00.956Z,9.10
2019-02-04T15:24:08.900Z,8.90
2019-02-04T15:27:04.818Z,8.60
2019-02-04T15:30:05.146Z,8.20
2019-02-04T15:33:05.622Z,7.80
2019-02-04T15:36:07.114Z,7.30
2019-02-04T15:39:08.327Z,7.00
2019-02-04T15:42:09.150Z,6.80
2019-02-04T15:45:09.447Z,6.50
2019-02-04T15:48:10.442Z,6.30
2019-02-04T15:51:10.888Z,6.20
2019-02-04T15:54:11.922Z,6.00
2019-02-04T15:57:12.373Z,5.60
2019-02-04T16:00:13.614Z,5.30
2019-02-04T16:03:14.369Z,5.00
2019-02-04T16:06:14.846Z,4.80
2019-02-04T16:09:15.434Z,4.90
2019-02-04T16:12:16.642Z,4.70
2019-02-04T16:15:17.225Z,4.40
2019-02-04T16:18:17.690Z,4.20
2019-02-04T16:21:18.852Z,4.00
2019-02-04T16:24:19.315Z,3.60
2019-02-04T16:27:19.649Z,3.70
2019-02-04T16:30:20.314Z,3.70
2019-02-04T16:33:21.562Z,3.70
2019-02-04T16:36:22.076Z,3.60
2019-02-04T16:39:22.634Z,3.60
2019-02-04T16:42:23.163Z,3.10
2019-02-04T16:45:23.527Z,3.00
2019-02-04T16:48:24.267Z,2.90
2019-02-04T16:51:24.774Z,2.90
2019-02-04T16:54:25.646Z,2.90
2019-02-04T16:57:26.646Z,2.90
2019-02-04T17:00:27.916Z,2.80
2019-02-04T17:03:28.363Z,2.70
2019-02-04T17:06:29.664Z,2.40
2019-02-04T17:09:32.274Z,2.30
2019-02-04T17:12:33.681Z,2.00
2019-02-04T17:15:34.316Z,2.00
2019-02-04T17:18:35.247Z,2.00
2019-02-04T17:21:35.897Z,1.70
2019-02-04T17:24:36.419Z,1.70
2019-02-04T17:27:37.041Z,1.60
2019-02-04T17:30:37.465Z,1.50
2019-02-04T17:33:38.407Z,1.60
2019-02-04T17:36:39.647Z,1.60
2019-02-04T17:39:28.462Z,1.50
2019-02-04T17:42:36.408Z,1.50
2019-02-04T17:45:37.718Z,1.50
2019-02-04T17:48:38.099Z,1.50
2019-02-04T17:51:38.412Z,1.40
2019-02-04T17:54:38.791Z,1.40
2019-02-04T17:57:39.279Z,1.30
2019-02-04T18:00:45.096Z,1.30
2019-02-04T18:03:46.166Z,0.80
2019-02-04T18:06:46.621Z,0.70
2019-02-04T18:09:47.002Z,0.90
2019-02-04T18:12:47.289Z,0.90
2019-02-04T18:15:47.874Z,0.60
2019-02-04T18:18:48.401Z,0.70
2019-02-04T18:21:48.899Z,0.60
2019-02-04T18:24:49.719Z,0.00
2019-02-04T18:27:50.307Z,0.30
2019-02-04T18:30:51.685Z,0.50
2019-02-04T18:33:52.117Z,0.20
2019-02-04T18:36:52.561Z,0.10
2019-02-04T18:39:53.166Z,0.10
2019-02-04T18:42:54.311Z,0.10
2019-02-04T18:45:55.243Z,0.10
2019-02-04T18:48:56.939Z,0.20
2019-02-04T18:51:57.972Z,0.20
2019-02-04T18:54:58.690Z,0.20
2019-02-04T18:57:59.252Z,0.00
2019-02-04T19:01:00.724Z,-0.40
2019-02-04T19:04:02.257Z,-0.20
2019-02-04T19:07:03.448Z,-0.30
2019-02-04T19:10:04.115Z,-0.10
2019-02-04T19:13:05.320Z,-0.10
2019-02-04T19:16:06.090Z,-0.20
2019-02-04T19:19:06.559Z,-0.10
2019-02-04T19:22:07.922Z,-0.10
2019-02-04T19:25:08.469Z,-0.20
2019-02-04T19:28:09.184Z,0.00
2019-02-04T19:31:10.898Z,0.00
2019-02-04T19:34:11.427Z,0.00
2019-02-04T19:37:12.779Z,-0.20
2019-02-04T19:40:13.428Z,0.00
2019-02-04T19:43:14.268Z,0.00
2019-02-04T19:46:14.892Z,-0.10
2019-02-04T19:49:16.025Z,-0.10
2019-02-04T19:52:16.554Z,-0.10
2019-02-04T19:55:17.664Z,-0.10
2019-02-04T19:58:18.323Z,-0.10
2019-02-04T20:01:18.727Z,-0.20
2019-02-04T20:04:19.252Z,-0.10
2019-02-04T20:07:19.751Z,-0.20
2019-02-04T20:10:20.402Z,-0.20
2019-02-04T20:13:20.843Z,-0.20
2019-02-04T20:16:22.136Z,-0.30
2019-02-04T20:19:23.267Z,-0.30
2019-02-04T20:22:24.563Z,-0.40
2019-02-04T20:25:25.725Z,-0.40
2019-02-04T20:28:26.289Z,-0.50
2019-02-04T20:31:26.741Z,-0.60
2019-02-04T20:34:27.387Z,-0.60
2019-02-04T20:37:27.927Z,-0.60
2019-02-04T20:40:28.944Z,-0.60
2019-02-04T20:43:29.690Z,-0.70
2019-02-04T20:46:30.046Z,-0.80
2019-02-04T20:49:31.484Z,-0.80
2019-02-04T20:52:32.328Z,-0.80
2019-02-04T20:55:33.747Z,-1.00
2019-02-04T20:58:34.375Z,-0.90
2019-02-04T21:01:35.412Z,-0.80
2019-02-04T21:04:36.671Z,-0.70
2019-02-04T21:07:37.107Z,-0.70
2019-02-04T21:10:37.640Z,-0.70
2019-02-04T21:13:38.130Z,-0.90
2019-02-04T21:16:39.415Z,-0.90
2019-02-04T21:19:39.797Z,-0.80
2019-02-04T21:22:40.412Z,-0.80
2019-02-04T21:25:41.489Z,-0.80
2019-02-04T21:28:42.327Z,-0.90
2019-02-04T21:31:42.754Z,-1.00
2019-02-04T21:34:43.408Z,-1.20
2019-02-04T21:37:44.230Z,-1.20
2019-02-04T21:40:45.119Z,-1.00
2019-02-04T21:43:46.170Z,-1.20
2019-02-04T21:46:46.706Z,-1.00
2019-02-04T21:49:47.081Z,-0.90
2019-02-04T21:52:47.889Z,-0.90
2019-02-04T21:55:48.664Z,-0.80
2019-02-04T21:58:48.982Z,-0.90
2019-02-04T22:01:49.584Z,-0.80
2019-02-04T22:04:50.180Z,-0.90
2019-02-04T22:07:50.554Z,-0.80
2019-02-04T22:10:50.833Z,-0.80
2019-02-04T22:13:51.271Z,-0.90
2019-02-04T22:16:52.530Z,-0.90
2019-02-04T22:19:52.889Z,-0.80
2019-02-04T22:22:54.295Z,-0.80
2019-02-04T22:25:54.879Z,-0.80
2019-02-04T22:28:55.332Z,-0.80
2019-02-04T22:31:55.735Z,-0.70
2019-02-04T22:34:56.435Z,-0.70
2019-02-04T22:37:57.109Z,-0.70
2019-02-04T22:40:57.596Z,-0.90
2019-02-04T22:43:57.914Z,-0.90
2019-02-04T22:46:58.299Z,-0.90
2019-02-04T22:49:58.733Z,-0.80
2019-02-04T22:53:02.120Z,-0.80
2019-02-04T22:56:01.756Z,-0.70
2019-02-04T22:58:52.185Z,-0.60
2019-02-04T23:02:00.005Z,-0.80
2019-02-04T23:05:02.805Z,-0.80
2019-02-04T23:07:51.342Z,-0.80
2019-02-04T23:10:59.296Z,-0.70
2019-02-04T23:14:00.046Z,-0.70
2019-02-04T23:17:00.690Z,-0.70
2019-02-04T23:20:01.302Z,-0.90
2019-02-04T23:23:01.957Z,-0.80
2019-02-04T23:26:02.309Z,-0.70
2019-02-04T23:29:03.556Z,-0.70
2019-02-04T23:32:04.794Z,-0.70
2019-02-04T23:34:53.427Z,-0.70
2019-02-04T23:38:01.362Z,-0.60
2019-02-04T23:41:01.671Z,-0.70
2019-02-04T23:44:02.129Z,-0.80
2019-02-04T23:47:02.693Z,-0.70
2019-02-04T23:50:03.300Z,-0.90
2019-02-04T23:53:03.901Z,-0.90
2019-02-04T23:56:04.351Z,-0.90
2019-02-04T23:59:04.956Z,-0.80
